Time;durP1;ratioP1;P1;durP2;ratioP2;P2;SDS_P1;SDS_P2;PMS_P1;PMS_P2;Temp;Humidity;BMP_temperature;BMP_pressure;BME280_temperature;BME280_humidity;BME280_pressure;Samples;Min_cycle;Max_cycle;Signal;HPM_P1;HPM_P2
2022/09/06 00:02:25;;;;;;;2.02;1.92;;;21.20;56.00;;;;;;895076;157;27479;-76
2022/09/06 00:04:51;;;;;;;2.25;2.12;;;21.20;56.00;;;;;;893184;157;27458;-75
2022/09/06 00:07:18;;;;;;;2.10;2.00;;;21.20;56.00;;;;;;894173;157;27437;-75
2022/09/06 00:09:44;;;;;;;2.00;1.80;;;21.20;56.10;;;;;;894104;157;27376;-75
2022/09/06 00:12:11;;;;;;;3.52;1.85;;;21.20;56.20;;;;;;894605;157;27533;-76
2022/09/06 00:14:38;;;;;;;1.90;1.80;;;21.10;56.20;;;;;;894627;157;27439;-74
2022/09/06 00:17:04;;;;;;;1.98;1.87;;;21.10;56.30;;;;;;895139;157;27529;-75
2022/09/06 00:19:31;;;;;;;2.25;2.05;;;21.10;56.40;;;;;;894050;157;27372;-76
2022/09/06 00:21:57;;;;;;;2.22;1.98;;;21.10;56.50;;;;;;894802;157;27462;-74
2022/09/06 00:24:24;;;;;;;2.00;1.80;;;21.00;56.50;;;;;;893934;157;27407;-75
2022/09/06 00:26:51;;;;;;;2.77;1.90;;;21.00;56.60;;;;;;894911;157;27454;-75
2022/09/06 00:29:17;;;;;;;2.47;2.00;;;21.00;56.60;;;;;;894213;157;27781;-75
2022/09/06 00:31:44;;;;;;;2.37;2.08;;;20.90;56.60;;;;;;894249;157;27406;-76
2022/09/06 00:34:10;;;;;;;1.90;1.80;;;20.90;56.70;;;;;;894295;157;27493;-76
2022/09/06 00:36:37;;;;;;;3.02;1.87;;;20.90;56.80;;;;;;894829;157;27404;-75
2022/09/06 00:39:04;;;;;;;1.98;1.87;;;20.80;56.90;;;;;;894339;157;27524;-75
2022/09/06 00:41:30;;;;;;;2.72;2.17;;;20.80;57.20;;;;;;894895;157;27488;-75
2022/09/06 00:43:57;;;;;;;2.50;2.30;;;20.70;57.20;;;;;;894691;157;27439;-74
2022/09/06 00:46:23;;;;;;;2.85;2.05;;;20.70;57.30;;;;;;894591;157;27454;-75
2022/09/06 00:48:50;;;;;;;1.82;1.72;;;20.70;57.40;;;;;;893821;157;27954;-75
2022/09/06 00:51:17;;;;;;;2.70;2.15;;;20.70;57.50;;;;;;895603;157;27501;-76
2022/09/06 00:53:43;;;;;;;2.85;2.08;;;20.70;57.60;;;;;;893878;157;27451;-75
2022/09/06 00:56:10;;;;;;;2.15;2.05;;;20.70;57.80;;;;;;894061;157;27415;-75
2022/09/06 00:58:36;;;;;;;2.20;2.00;;;20.60;57.80;;;;;;894212;157;27421;-75
2022/09/06 01:01:03;;;;;;;2.22;2.12;;;20.70;58.00;;;;;;894629;157;27508;-74
2022/09/06 01:03:29;;;;;;;2.50;2.30;;;20.60;58.10;;;;;;896279;157;27460;-76
2022/09/06 01:06:18;;;;;;;2.15;2.05;;;20.60;58.10;;;;;;895237;157;27525;-75
2022/09/06 01:08:59;;;;;;;2.20;2.00;;;20.60;58.20;;;;;;894221;156;27538;-76
2022/09/06 01:11:28;;;;;;;2.20;2.00;;;20.70;58.20;;;;;;892442;157;27417;-74
2022/09/06 01:16:45;;;;;;;2.40;2.15;;;20.60;58.20;;;;;;974759;145;40707;-74
2022/09/06 01:19:14;;;;;;;1.75;1.65;;;20.60;58.40;;;;;;960329;148;27347;-74
2022/09/06 01:21:49;;;;;;;2.45;2.20;;;20.70;57.80;;;;;;960976;148;27294;-75
2022/09/06 01:24:44;;;;;;;2.58;2.30;;;20.60;58.40;;;;;;960850;147;27374;-74
2022/09/06 01:27:19;;;;;;;1.80;1.70;;;20.70;58.50;;;;;;960069;146;27222;-74
2022/09/06 01:30:05;;;;;;;3.10;2.00;;;20.70;58.50;;;;;;959125;146;27305;-76
2022/09/06 01:32:40;;;;;;;2.25;2.15;;;20.70;58.70;;;;;;961608;148;27309;-75
2022/09/06 01:35:24;;;;;;;2.25;2.05;;;20.70;58.60;;;;;;960544;148;27697;-73
2022/09/06 01:37:51;;;;;;;1.80;1.70;;;20.70;58.70;;;;;;959971;146;27266;-73
2022/09/06 01:40:17;;;;;;;1.77;1.60;;;20.80;58.70;;;;;;957293;148;27312;-74
2022/09/06 01:42:44;;;;;;;2.10;1.90;;;20.90;58.70;;;;;;946923;149;27893;-74
2022/09/06 01:45:10;;;;;;;2.27;2.08;;;20.90;58.70;;;;;;946532;149;27466;-73
2022/09/06 01:47:49;;;;;;;2.10;2.00;;;20.90;58.70;;;;;;945028;148;27349;-74
2022/09/06 01:50:33;;;;;;;2.20;2.00;;;21.00;58.80;;;;;;945401;149;27311;-74
2022/09/06 01:53:24;;;;;;;1.95;1.70;;;21.00;58.10;;;;;;945559;148;27339;-73
2022/09/06 01:55:51;;;;;;;2.85;1.90;;;21.00;58.60;;;;;;946061;149;27249;-74
2022/09/06 01:58:23;;;;;;;1.90;1.80;;;21.10;58.60;;;;;;944369;148;27341;-75
2022/09/06 02:01:08;;;;;;;2.47;1.60;;;21.10;58.60;;;;;;944770;148;27315;-74
2022/09/06 02:03:44;;;;;;;3.60;2.10;;;21.10;58.60;;;;;;945720;148;27726;-74
2022/09/06 02:06:13;;;;;;;4.00;2.35;;;21.10;58.60;;;;;;945268;149;27304;-74
2022/09/06 02:08:42;;;;;;;2.83;2.00;;;21.10;58.60;;;;;;945426;148;27366;-74
2022/09/06 02:11:09;;;;;;;2.22;1.80;;;21.10;58.70;;;;;;944748;149;27349;-74
2022/09/06 02:13:38;;;;;;;2.20;2.00;;;21.10;58.80;;;;;;945845;148;28554;-73
2022/09/06 02:16:05;;;;;;;1.95;1.85;;;21.00;58.80;;;;;;943023;149;27466;-75
2022/09/06 02:18:40;;;;;;;1.90;1.80;;;21.00;58.80;;;;;;940100;149;27417;-74
2022/09/06 02:21:06;;;;;;;2.95;2.20;;;21.10;58.90;;;;;;939560;149;27338;-74
2022/09/06 02:23:33;;;;;;;3.35;1.90;;;21.10;59.10;;;;;;940180;149;27293;-74
2022/09/06 02:26:02;;;;;;;2.52;2.10;;;21.10;59.00;;;;;;939088;149;27311;-73
2022/09/06 02:28:29;;;;;;;2.05;1.95;;;21.10;59.00;;;;;;939254;149;27461;-73
2022/09/06 02:30:56;;;;;;;1.80;1.70;;;21.20;59.10;;;;;;939582;149;27409;-74
2022/09/06 02:33:22;;;;;;;2.02;1.87;;;21.30;59.00;;;;;;939646;149;27429;-73
2022/09/06 02:35:49;;;;;;;3.08;2.00;;;21.30;59.00;;;;;;939689;149;27309;-73
2022/09/06 02:38:15;;;;;;;2.50;1.92;;;21.40;58.90;;;;;;939551;149;27328;-73
2022/09/06 02:40:42;;;;;;;1.82;1.72;;;21.50;58.80;;;;;;940004;149;27343;-73
2022/09/06 02:43:08;;;;;;;2.67;1.92;;;21.60;58.60;;;;;;939263;149;27292;-74
2022/09/06 02:45:35;;;;;;;2.47;2.00;;;21.60;58.60;;;;;;939523;149;27464;-74
2022/09/06 02:48:02;;;;;;;1.80;1.70;;;21.70;58.50;;;;;;939328;149;27871;-74
2022/09/06 02:50:28;;;;;;;1.92;1.72;;;21.70;58.30;;;;;;939616;149;27265;-74
2022/09/06 02:53:08;;;;;;;3.47;2.45;;;21.70;58.20;;;;;;939743;149;27337;-74
2022/09/06 02:55:33;;;;;;;3.42;2.10;;;21.80;58.10;;;;;;939535;149;27434;-74
2022/09/06 02:58:00;;;;;;;2.22;1.62;;;21.80;58.00;;;;;;940012;149;27382;-73
2022/09/06 03:00:29;;;;;;;1.70;1.60;;;21.80;58.00;;;;;;939738;149;27320;-76
2022/09/06 03:02:56;;;;;;;2.10;1.90;;;21.80;58.00;;;;;;938981;149;27399;-75
2022/09/06 03:05:23;;;;;;;3.67;1.87;;;21.80;58.50;;;;;;939785;149;27377;-75
2022/09/06 03:07:49;;;;;;;1.98;1.85;;;21.90;58.00;;;;;;939832;149;27254;-75
2022/09/06 03:10:16;;;;;;;2.40;2.00;;;21.90;58.00;;;;;;939095;149;27504;-75
2022/09/06 03:12:42;;;;;;;1.80;1.60;;;21.90;58.00;;;;;;939989;149;27849;-75
2022/09/06 03:15:09;;;;;;;2.35;1.87;;;21.90;58.00;;;;;;939667;149;27336;-75
2022/09/06 03:17:36;;;;;;;3.92;1.75;;;22.00;58.00;;;;;;940053;149;27838;-75
2022/09/06 03:20:02;;;;;;;4.95;1.80;;;22.00;57.90;;;;;;940381;149;27397;-75
2022/09/06 03:22:29;;;;;;;2.85;1.87;;;22.00;58.00;;;;;;939875;149;28887;-75
2022/09/06 03:24:56;;;;;;;2.45;1.90;;;22.00;58.00;;;;;;940065;149;27345;-75
2022/09/06 03:27:22;;;;;;;4.47;2.08;;;22.00;58.00;;;;;;939660;149;28520;-75
2022/09/06 03:29:48;;;;;;;2.10;1.90;;;22.00;58.00;;;;;;939488;149;27404;-75
2022/09/06 03:32:15;;;;;;;4.90;2.00;;;22.00;58.00;;;;;;939430;149;27271;-74
2022/09/06 03:34:42;;;;;;;2.33;2.10;;;22.00;58.00;;;;;;940218;149;27361;-75
2022/09/06 03:37:08;;;;;;;2.50;1.90;;;22.00;58.10;;;;;;939565;149;27707;-74
2022/09/06 03:39:35;;;;;;;2.05;1.80;;;22.00;58.20;;;;;;940260;149;27445;-76
2022/09/06 03:42:01;;;;;;;2.37;2.15;;;22.00;58.20;;;;;;939424;149;27324;-75
2022/09/06 03:44:28;;;;;;;3.45;2.05;;;22.00;58.20;;;;;;940193;149;27713;-75
2022/09/06 03:46:55;;;;;;;3.35;1.90;;;22.00;58.20;;;;;;939839;149;27412;-75
2022/09/06 03:49:21;;;;;;;2.30;2.10;;;22.00;58.30;;;;;;939688;149;27324;-74
2022/09/06 03:51:48;;;;;;;6.15;3.25;;;22.00;58.40;;;;;;939667;149;27333;-74
2022/09/06 03:54:14;;;;;;;1.90;1.80;;;22.00;58.40;;;;;;939423;149;28926;-75
2022/09/06 03:56:41;;;;;;;2.05;1.95;;;22.00;58.50;;;;;;939705;149;27393;-74
2022/09/06 03:59:08;;;;;;;2.27;2.10;;;22.00;58.60;;;;;;940339;149;27383;-75
2022/09/06 04:01:34;;;;;;;2.08;1.90;;;22.00;58.60;;;;;;939332;149;27726;-75
2022/09/06 04:04:01;;;;;;;1.65;1.55;;;22.00;58.70;;;;;;939681;149;27435;-75
2022/09/06 04:06:27;;;;;;;2.15;2.00;;;22.00;58.90;;;;;;939255;149;27424;-75
2022/09/06 04:08:54;;;;;;;4.17;2.20;;;21.90;59.20;;;;;;939465;149;27333;-74
2022/09/06 04:11:20;;;;;;;2.02;1.82;;;21.90;59.30;;;;;;939991;149;27277;-75
2022/09/06 04:13:47;;;;;;;2.20;2.10;;;21.80;59.30;;;;;;939867;149;27290;-75
2022/09/06 04:16:16;;;;;;;4.10;2.02;;;21.80;59.40;;;;;;940742;148;27359;-75
2022/09/06 04:18:40;;;;;;;4.30;2.22;;;21.70;59.60;;;;;;952949;148;27372;-75
2022/09/06 04:21:07;;;;;;;2.90;2.12;;;21.60;59.60;;;;;;953654;148;27314;-75
2022/09/06 04:23:33;;;;;;;2.15;1.95;;;21.60;59.80;;;;;;952354;148;27338;-76
2022/09/06 04:26:00;;;;;;;2.12;2.02;;;21.50;59.80;;;;;;953539;148;27383;-75
2022/09/06 04:28:27;;;;;;;2.58;2.33;;;21.50;60.30;;;;;;953876;148;27279;-75
2022/09/06 04:30:59;;;;;;;2.60;2.10;;;21.40;60.00;;;;;;953887;148;27417;-75
2022/09/06 04:33:26;;;;;;;2.25;2.05;;;21.40;60.10;;;;;;953884;147;27279;-75
2022/09/06 04:35:58;;;;;;;2.40;2.20;;;21.40;60.20;;;;;;953392;148;27373;-75
2022/09/06 04:38:24;;;;;;;10.72;3.65;;;21.30;60.40;;;;;;953804;147;27383;-75
2022/09/06 04:40:51;;;;;;;2.50;2.30;;;21.30;60.40;;;;;;953845;147;27385;-75
2022/09/06 04:43:18;;;;;;;2.33;2.20;;;21.30;60.40;;;;;;953883;147;27350;-75
2022/09/06 04:45:44;;;;;;;4.95;2.45;;;21.30;60.60;;;;;;953092;148;27323;-75
2022/09/06 04:48:11;;;;;;;2.30;2.10;;;21.30;60.80;;;;;;953508;148;27387;-75
2022/09/06 04:50:37;;;;;;;3.08;2.45;;;21.30;60.70;;;;;;953237;148;27305;-76
2022/09/06 04:53:04;;;;;;;2.80;2.27;;;21.20;60.80;;;;;;953476;148;27346;-76
2022/09/06 04:55:31;;;;;;;2.87;2.60;;;21.20;60.80;;;;;;953265;148;27451;-75
2022/09/06 04:58:00;;;;;;;2.22;2.10;;;21.20;60.90;;;;;;953701;147;27247;-76
2022/09/06 05:00:26;;;;;;;2.67;2.05;;;21.20;61.00;;;;;;952347;147;27307;-75
2022/09/06 05:02:53;;;;;;;1.85;1.75;;;21.20;61.00;;;;;;953716;148;27413;-75
2022/09/06 05:05:21;;;;;;;2.37;2.17;;;21.20;61.00;;;;;;953919;147;27431;-75
2022/09/06 05:07:46;;;;;;;2.47;2.27;;;21.20;61.10;;;;;;953481;148;27485;-75
2022/09/06 05:10:13;;;;;;;2.67;2.33;;;21.20;61.20;;;;;;952551;148;27305;-75
2022/09/06 05:12:39;;;;;;;2.83;2.12;;;21.10;61.30;;;;;;953413;148;27313;-74
2022/09/06 05:15:06;;;;;;;3.00;2.20;;;21.10;61.50;;;;;;953698;148;27398;-75
2022/09/06 05:17:32;;;;;;;2.10;2.00;;;21.10;61.50;;;;;;949059;147;27464;-76
2022/09/06 05:19:59;;;;;;;2.22;2.02;;;21.10;61.50;;;;;;939695;149;27341;-75
2022/09/06 05:22:26;;;;;;;2.47;1.95;;;21.10;61.60;;;;;;939583;149;27319;-75
2022/09/06 05:24:52;;;;;;;3.20;2.40;;;21.10;61.60;;;;;;939548;148;27374;-75
2022/09/06 05:27:19;;;;;;;2.42;2.17;;;21.10;61.70;;;;;;939763;149;27405;-74
2022/09/06 05:29:45;;;;;;;2.65;2.00;;;21.10;61.80;;;;;;939767;149;27331;-74
2022/09/06 05:32:12;;;;;;;2.72;2.08;;;21.10;62.00;;;;;;940005;149;27340;-74
2022/09/06 05:34:39;;;;;;;2.27;2.05;;;21.10;62.00;;;;;;939506;149;27651;-74
2022/09/06 05:37:05;;;;;;;1.98;1.87;;;21.10;62.00;;;;;;939828;149;27277;-75
2022/09/06 05:39:32;;;;;;;3.40;2.37;;;21.10;62.80;;;;;;939186;149;27374;-75
2022/09/06 05:41:59;;;;;;;3.55;2.30;;;21.10;62.10;;;;;;939932;149;27349;-75
2022/09/06 05:44:25;;;;;;;2.20;2.10;;;21.10;62.30;;;;;;940130;149;27434;-75
2022/09/06 05:46:52;;;;;;;2.20;2.00;;;21.10;62.30;;;;;;939807;149;28409;-74
2022/09/06 05:49:18;;;;;;;1.90;1.80;;;21.20;62.60;;;;;;938591;149;27298;-74
2022/09/06 05:51:45;;;;;;;2.62;1.87;;;21.30;63.30;;;;;;939668;149;27315;-75
2022/09/06 05:54:11;;;;;;;2.22;2.08;;;21.50;64.30;;;;;;939182;149;27421;-75
2022/09/06 05:56:38;;;;;;;1.95;1.85;;;21.90;65.30;;;;;;939650;149;27352;-74
2022/09/06 05:59:04;;;;;;;2.27;2.10;;;22.40;65.70;;;;;;939785;149;27341;-75
2022/09/06 06:01:31;;;;;;;2.30;2.08;;;23.10;65.40;;;;;;940178;149;27336;-75
2022/09/06 06:03:58;;;;;;;3.47;2.00;;;23.80;64.30;;;;;;940270;149;27317;-76
2022/09/06 06:06:24;;;;;;;1.90;1.80;;;24.50;63.20;;;;;;939004;149;27428;-76
2022/09/06 06:08:51;;;;;;;2.08;1.70;;;25.20;62.10;;;;;;939177;149;27327;-76
2022/09/06 06:11:17;;;;;;;2.22;1.98;;;25.90;61.40;;;;;;939289;149;27374;-76
2022/09/06 06:13:44;;;;;;;1.82;1.72;;;26.50;60.60;;;;;;940132;149;27349;-76
2022/09/06 06:16:11;;;;;;;5.58;1.90;;;27.20;59.60;;;;;;939323;149;27326;-76
2022/09/06 06:18:37;;;;;;;3.10;1.70;;;27.90;58.90;;;;;;946080;148;27458;-76
2022/09/06 06:21:12;;;;;;;1.70;1.60;;;28.50;57.70;;;;;;953875;148;27569;-76
2022/09/06 06:23:39;;;;;;;2.70;1.75;;;29.00;56.30;;;;;;953787;148;27412;-77
2022/09/06 06:26:06;;;;;;;2.33;1.70;;;29.40;55.00;;;;;;954290;147;28410;-77
2022/09/06 06:28:32;;;;;;;2.92;1.75;;;29.50;54.10;;;;;;953670;148;27296;-77
2022/09/06 06:30:59;;;;;;;1.80;1.70;;;29.70;53.40;;;;;;954163;147;27383;-76
2022/09/06 06:33:25;;;;;;;2.22;1.87;;;29.70;52.80;;;;;;953959;148;27408;-79
2022/09/06 06:36:13;;;;;;;3.72;1.82;;;29.70;52.60;;;;;;953652;148;27996;-78
2022/09/06 06:38:39;;;;;;;1.90;1.80;;;29.80;53.10;;;;;;953658;148;27361;-78
2022/09/06 06:41:06;;;;;;;2.00;1.80;;;30.10;53.70;;;;;;954009;148;27332;-77
2022/09/06 06:43:36;;;;;;;2.35;2.15;;;30.50;53.70;;;;;;953212;148;27294;-78
2022/09/06 06:46:08;;;;;;;1.70;1.60;;;30.90;53.30;;;;;;953522;147;27400;-77
2022/09/06 06:48:34;;;;;;;2.62;1.80;;;31.40;53.00;;;;;;953762;148;27330;-79
2022/09/06 06:51:01;;;;;;;2.27;1.50;;;32.10;52.70;;;;;;953798;148;27788;-77
2022/09/06 06:53:27;;;;;;;3.52;1.70;;;32.70;52.20;;;;;;953094;148;27371;-78
2022/09/06 06:55:54;;;;;;;1.70;1.60;;;33.30;52.20;;;;;;953288;148;27709;-78
2022/09/06 06:58:21;;;;;;;5.10;1.60;;;34.00;50.80;;;;;;952843;147;28251;-78
2022/09/06 07:00:47;;;;;;;2.55;1.42;;;34.70;50.00;;;;;;953973;148;26247;-78
2022/09/06 07:03:14;;;;;;;1.60;1.27;;;35.40;49.30;;;;;;954056;147;26317;-78
2022/09/06 07:05:44;;;;;;;2.12;1.47;;;36.10;48.50;;;;;;953867;147;26235;-78
2022/09/06 07:08:10;;;;;;;1.60;1.50;;;36.80;47.60;;;;;;953507;148;26215;-78
2022/09/06 07:10:36;;;;;;;1.62;1.20;;;37.30;46.70;;;;;;953521;148;26259;-78
2022/09/06 07:13:03;;;;;;;5.47;4.47;;;37.90;45.80;;;;;;953734;148;26257;-78
2022/09/06 07:15:29;;;;;;;3.83;3.52;;;38.50;45.00;;;;;;953412;148;26602;-78
2022/09/06 07:17:56;;;;;;;2.33;2.12;;;38.90;44.00;;;;;;953929;148;26243;-78
2022/09/06 07:20:24;;;;;;;2.70;1.85;;;39.40;43.40;;;;;;940723;148;26643;-78
2022/09/06 07:22:49;;;;;;;2.08;1.40;;;39.70;42.20;;;;;;939918;149;26261;-78
2022/09/06 07:25:16;;;;;;;2.37;1.67;;;40.00;42.10;;;;;;938686;149;26328;-79
2022/09/06 07:27:43;;;;;;;2.20;1.60;;;40.10;40.80;;;;;;939990;149;26211;-78
2022/09/06 07:30:09;;;;;;;2.35;1.72;;;40.20;40.30;;;;;;940158;149;26185;-78
2022/09/06 07:32:36;;;;;;;1.32;1.17;;;40.30;39.90;;;;;;940114;149;26224;-78
2022/09/06 07:35:02;;;;;;;1.72;1.25;;;40.50;39.90;;;;;;940144;149;26297;-78
2022/09/06 07:37:29;;;;;;;1.52;1.42;;;40.60;39.40;;;;;;939619;149;26297;-78
2022/09/06 07:39:56;;;;;;;1.30;1.15;;;40.90;39.40;;;;;;939540;149;26332;-78
2022/09/06 07:42:22;;;;;;;2.77;1.50;;;41.00;38.70;;;;;;940940;149;26204;-78
2022/09/06 07:44:49;;;;;;;3.12;1.25;;;41.30;38.60;;;;;;940650;149;26316;-79
2022/09/06 07:47:16;;;;;;;1.60;1.40;;;41.60;38.30;;;;;;942273;149;26188;-79
2022/09/06 07:49:42;;;;;;;1.30;1.20;;;41.80;37.80;;;;;;942275;149;26173;-79
2022/09/06 07:52:09;;;;;;;2.47;1.67;;;42.10;37.30;;;;;;942697;149;26226;-80
2022/09/06 07:54:36;;;;;;;1.67;1.40;;;42.30;36.90;;;;;;942421;149;28327;-79
2022/09/06 07:57:02;;;;;;;1.72;1.60;;;42.50;36.50;;;;;;939927;149;26805;-79
2022/09/06 07:59:28;;;;;;;1.72;1.37;;;42.80;36.00;;;;;;940037;149;26249;-79
2022/09/06 08:01:55;;;;;;;1.50;1.40;;;43.10;35.70;;;;;;939746;149;26305;-79
2022/09/06 08:04:22;;;;;;;1.95;1.20;;;43.30;35.40;;;;;;939364;149;26253;-79
2022/09/06 08:06:50;;;;;;;1.12;1.02;;;43.60;35.10;;;;;;940054;149;26245;-79
2022/09/06 08:09:15;;;;;;;4.85;1.22;;;43.80;34.60;;;;;;939511;149;26251;-79
2022/09/06 08:11:41;;;;;;;1.30;1.20;;;44.10;34.40;;;;;;940427;149;26194;-79
2022/09/06 08:14:09;;;;;;;2.47;1.27;;;44.20;34.00;;;;;;940062;149;26624;-80
2022/09/06 08:16:34;;;;;;;1.05;1.02;;;44.50;33.40;;;;;;940476;149;26269;-79
2022/09/06 08:19:01;;;;;;;1.10;1.00;;;44.40;32.80;;;;;;940783;149;26226;-79
2022/09/06 08:21:28;;;;;;;2.22;1.20;;;44.40;32.40;;;;;;953675;148;26195;-79
2022/09/06 08:23:54;;;;;;;2.20;1.30;;;44.30;32.20;;;;;;954024;148;26314;-79
2022/09/06 08:26:21;;;;;;;1.00;1.00;;;44.20;32.20;;;;;;952913;148;26213;-79
2022/09/06 08:28:47;;;;;;;1.12;1.10;;;44.20;32.30;;;;;;953466;148;26159;-79
2022/09/06 08:31:14;;;;;;;2.33;1.25;;;44.30;32.20;;;;;;953251;148;26239;-79
2022/09/06 08:33:41;;;;;;;1.15;1.15;;;44.40;32.00;;;;;;953478;148;26243;-79
2022/09/06 08:36:07;;;;;;;1.30;1.20;;;44.60;31.90;;;;;;953274;148;26192;-79
2022/09/06 08:38:34;;;;;;;2.08;1.30;;;44.80;31.70;;;;;;953988;148;26151;-80
2022/09/06 08:41:19;;;;;;;1.55;1.17;;;45.00;31.40;;;;;;953841;148;26248;-80
2022/09/06 08:43:48;;;;;;;0.95;0.95;;;45.30;30.50;;;;;;953806;148;26315;-80
2022/09/06 08:46:15;;;;;;;1.72;1.35;;;45.60;31.00;;;;;;953006;148;26364;-79
2022/09/06 08:48:41;;;;;;;1.75;1.10;;;45.90;30.50;;;;;;953495;148;26291;-80
2022/09/06 08:51:08;;;;;;;1.32;1.20;;;46.10;30.10;;;;;;954012;148;26560;-80
2022/09/06 08:53:34;;;;;;;1.30;1.00;;;46.30;29.90;;;;;;953406;148;26257;-80
2022/09/06 08:56:04;;;;;;;1.20;1.10;;;46.60;29.50;;;;;;953575;148;26188;-80
2022/09/06 08:58:55;;;;;;;1.20;1.10;;;46.80;29.30;;;;;;952710;148;26892;-80
2022/09/06 09:01:25;;;;;;;1.22;1.12;;;46.90;29.10;;;;;;953449;148;26272;-80
2022/09/06 09:03:51;;;;;;;1.45;1.02;;;47.10;28.90;;;;;;952909;148;26235;-80
2022/09/06 09:06:18;;;;;;;1.00;0.88;;;47.30;28.80;;;;;;953864;148;26302;-80
2022/09/06 09:09:06;;;;;;;1.07;1.00;;;47.40;28.60;;;;;;954143;148;26295;-80
2022/09/06 09:11:34;;;;;;;1.50;1.02;;;47.50;28.30;;;;;;953525;148;26235;-78
2022/09/06 09:14:08;;;;;;;1.07;1.07;;;47.70;28.20;;;;;;952952;148;26251;-77
2022/09/06 09:16:34;;;;;;;2.25;1.05;;;47.70;28.00;;;;;;953409;148;26340;-78
2022/09/06 09:19:03;;;;;;;1.00;1.00;;;47.70;27.70;;;;;;953450;148;26216;-79
2022/09/06 09:21:30;;;;;;;2.40;1.20;;;47.80;27.80;;;;;;942157;148;26245;-78
2022/09/06 09:23:57;;;;;;;1.62;1.05;;;47.70;27.30;;;;;;939608;149;26252;-78
2022/09/06 09:26:23;;;;;;;2.35;1.30;;;47.60;27.30;;;;;;940107;149;26594;-77
2022/09/06 09:29:05;;;;;;;0.80;0.80;;;47.60;27.30;;;;;;940187;149;28549;-78
2022/09/06 09:31:35;;;;;;;0.80;0.80;;;47.50;27.20;;;;;;939629;149;26179;-80
2022/09/06 09:34:03;;;;;;;1.10;1.00;;;47.40;27.20;;;;;;939479;149;26202;-80
2022/09/06 09:36:28;;;;;;;1.12;1.02;;;47.30;27.10;;;;;;939972;149;26312;-80
2022/09/06 09:38:55;;;;;;;1.70;1.22;;;47.10;26.90;;;;;;940518;149;26245;-80
2022/09/06 09:41:27;;;;;;;1.20;1.10;;;47.10;27.00;;;;;;939930;149;26293;-79
2022/09/06 09:43:57;;;;;;;1.47;1.10;;;46.80;26.80;;;;;;939180;149;26191;-79
2022/09/06 09:46:23;;;;;;;1.30;1.00;;;46.60;26.80;;;;;;939507;149;26229;-80
2022/09/06 09:49:05;;;;;;;1.95;1.00;;;46.40;26.90;;;;;;940343;149;26181;-80
2022/09/06 09:51:31;;;;;;;0.98;0.95;;;46.20;27.00;;;;;;940020;149;26306;-80
2022/09/06 09:53:58;;;;;;;1.20;1.10;;;45.80;27.10;;;;;;939322;149;26715;-79
2022/09/06 09:56:36;;;;;;;1.30;1.20;;;45.50;27.20;;;;;;940075;149;26297;-79
2022/09/06 09:59:03;;;;;;;1.25;1.00;;;45.10;27.20;;;;;;940640;149;26166;-80
2022/09/06 10:01:29;;;;;;;1.05;0.90;;;44.70;27.20;;;;;;940592;149;26358;-80
2022/09/06 10:04:05;;;;;;;1.50;1.40;;;44.40;27.30;;;;;;939431;149;26253;-80
2022/09/06 10:06:31;;;;;;;1.45;0.98;;;44.00;27.40;;;;;;940090;149;26259;-80
2022/09/06 10:08:58;;;;;;;1.25;1.10;;;43.60;27.50;;;;;;940154;149;26212;-80
2022/09/06 10:11:37;;;;;;;0.93;0.93;;;43.20;27.70;;;;;;940477;149;26205;-79
2022/09/06 10:14:12;;;;;;;1.20;1.12;;;42.80;27.80;;;;;;939635;149;26186;-80
2022/09/06 10:16:42;;;;;;;1.30;1.27;;;42.40;28.00;;;;;;939980;149;27492;-79
2022/09/06 10:19:08;;;;;;;1.30;1.20;;;41.90;28.20;;;;;;939792;149;26198;-79
2022/09/06 10:21:34;;;;;;;1.05;0.95;;;41.50;28.30;;;;;;944927;148;26230;-79
2022/09/06 10:24:19;;;;;;;2.98;1.47;;;41.10;28.50;;;;;;954385;148;26289;-79
2022/09/06 10:26:54;;;;;;;2.75;1.30;;;40.70;28.60;;;;;;952610;148;26586;-79
2022/09/06 10:29:39;;;;;;;1.75;1.12;;;40.20;28.80;;;;;;953850;148;26259;-79
2022/09/06 10:32:12;;;;;;;1.27;1.17;;;39.70;29.10;;;;;;952696;148;26234;-79
2022/09/06 10:34:50;;;;;;;2.35;1.37;;;39.30;29.30;;;;;;951985;147;27272;-79
2022/09/06 10:37:47;;;;;;;2.05;1.20;;;38.90;29.70;;;;;;952831;148;27275;-79
2022/09/06 10:40:19;;;;;;;4.75;1.72;;;38.40;29.80;;;;;;953672;148;27331;-79
2022/09/06 10:42:55;;;;;;;5.42;1.35;;;38.00;30.10;;;;;;953132;148;27361;-79
2022/09/06 10:45:33;;;;;;;3.37;1.50;;;37.60;30.30;;;;;;953910;148;26674;-79
2022/09/06 10:48:02;;;;;;;1.42;1.32;;;37.30;30.90;;;;;;953610;148;27376;-79
2022/09/06 10:50:34;;;;;;;5.08;1.70;;;37.00;31.10;;;;;;954032;148;27353;-79
2022/09/06 10:53:01;;;;;;;1.32;1.22;;;36.80;31.50;;;;;;953630;148;27383;-79
2022/09/06 10:55:27;;;;;;;1.40;1.30;;;36.60;31.60;;;;;;952534;148;27345;-79
2022/09/06 10:57:54;;;;;;;1.30;1.20;;;36.50;31.80;;;;;;953768;148;27267;-79
2022/09/06 11:00:20;;;;;;;1.10;1.10;;;36.30;32.00;;;;;;953181;148;27400;-79
2022/09/06 11:03:08;;;;;;;2.67;1.60;;;36.20;32.20;;;;;;953779;148;27343;-79
2022/09/06 11:05:35;;;;;;;1.20;1.20;;;36.00;32.30;;;;;;953435;147;27350;-78
2022/09/06 11:08:08;;;;;;;2.05;1.20;;;35.80;32.40;;;;;;952124;148;27290;-79
2022/09/06 11:10:34;;;;;;;1.37;1.27;;;35.70;32.50;;;;;;953059;148;27741;-79
2022/09/06 11:13:19;;;;;;;0.90;0.90;;;35.60;32.80;;;;;;953812;148;27413;-79
2022/09/06 11:15:51;;;;;;;1.52;1.40;;;35.40;33.00;;;;;;953921;148;27274;-79
2022/09/06 11:18:18;;;;;;;2.25;1.70;;;35.30;33.10;;;;;;953615;148;27775;-79
2022/09/06 11:20:44;;;;;;;1.10;1.00;;;35.10;33.30;;;;;;952344;148;27360;-79
2022/09/06 11:23:13;;;;;;;1.20;1.10;;;35.00;33.40;;;;;;940090;148;27391;-79
2022/09/06 11:25:40;;;;;;;1.50;1.20;;;34.90;33.60;;;;;;939925;149;27351;-79
2022/09/06 11:28:07;;;;;;;1.20;1.10;;;34.80;33.70;;;;;;939454;149;27332;-80
2022/09/06 11:30:33;;;;;;;2.35;1.30;;;34.60;33.60;;;;;;940555;149;27316;-79
2022/09/06 11:33:05;;;;;;;3.27;1.25;;;34.60;33.80;;;;;;940440;149;27289;-80
2022/09/06 11:35:33;;;;;;;1.10;1.05;;;34.60;34.00;;;;;;939922;149;27410;-79
2022/09/06 11:37:59;;;;;;;1.30;1.10;;;34.50;34.00;;;;;;939423;149;27321;-80
2022/09/06 11:40:28;;;;;;;0.98;0.98;;;34.50;34.00;;;;;;939738;149;27459;-80
2022/09/06 11:42:55;;;;;;;1.10;1.00;;;34.50;34.00;;;;;;938462;149;27432;-79
2022/09/06 11:45:39;;;;;;;2.22;1.00;;;34.50;33.90;;;;;;939309;149;27309;-80
2022/09/06 11:48:32;;;;;;;2.52;1.10;;;34.50;33.70;;;;;;940005;149;27422;-79
2022/09/06 11:50:54;;;;;;;2.12;1.00;;;34.50;33.70;;;;;;939175;149;27374;-80
2022/09/06 11:53:23;;;;;;;1.30;0.90;;;34.40;33.60;;;;;;939078;149;28579;-80
2022/09/06 11:55:49;;;;;;;1.07;1.07;;;34.40;33.60;;;;;;940375;149;27272;-79
2022/09/06 11:58:16;;;;;;;1.87;1.00;;;34.30;33.60;;;;;;939441;149;27876;-80
2022/09/06 12:00:42;;;;;;;1.55;0.80;;;34.30;33.60;;;;;;940039;149;27449;-79
2022/09/06 12:03:09;;;;;;;0.82;0.82;;;34.30;33.60;;;;;;939202;149;27673;-79
2022/09/06 12:05:35;;;;;;;1.40;1.30;;;34.20;33.60;;;;;;940416;149;27319;-78
2022/09/06 12:08:23;;;;;;;1.00;1.00;;;34.10;33.80;;;;;;929400;149;27375;-77
2022/09/06 12:10:50;;;;;;;1.10;1.00;;;34.10;33.90;;;;;;939995;149;27386;-79
2022/09/06 12:13:32;;;;;;;0.75;0.75;;;34.10;34.00;;;;;;939716;149;27332;-79
2022/09/06 12:15:59;;;;;;;1.50;0.80;;;34.00;34.00;;;;;;939589;149;27327;-79
2022/09/06 12:18:46;;;;;;;2.17;0.95;;;33.90;33.90;;;;;;939932;149;28456;-78
2022/09/06 12:21:37;;;;;;;1.15;0.82;;;33.90;34.20;;;;;;939720;149;27318;-79
2022/09/06 12:24:04;;;;;;;1.35;1.17;;;33.90;34.00;;;;;;945196;149;27385;-80
2022/09/06 12:26:50;;;;;;;1.22;0.85;;;33.90;34.10;;;;;;944532;149;27274;-79
2022/09/06 12:29:15;;;;;;;1.75;1.42;;;33.90;34.80;;;;;;944058;149;27385;-80
2022/09/06 12:31:51;;;;;;;1.20;1.10;;;33.80;34.10;;;;;;945507;149;27379;-79
2022/09/06 12:34:17;;;;;;;1.40;0.88;;;33.80;34.10;;;;;;944702;149;27414;-79
2022/09/06 12:36:56;;;;;;;1.92;1.20;;;33.80;34.10;;;;;;944786;149;27311;-79
2022/09/06 12:39:22;;;;;;;1.02;1.00;;;33.80;34.30;;;;;;944261;149;27721;-80
2022/09/06 12:41:49;;;;;;;1.82;1.10;;;33.90;34.30;;;;;;944594;149;27311;-78
2022/09/06 12:44:15;;;;;;;0.98;0.90;;;33.90;34.60;;;;;;944390;149;27295;-79
2022/09/06 12:46:48;;;;;;;1.22;0.95;;;33.80;34.40;;;;;;944994;149;27898;-78
2022/09/06 12:49:14;;;;;;;1.40;1.30;;;33.80;34.50;;;;;;944306;149;27396;-79
2022/09/06 12:51:41;;;;;;;1.37;1.27;;;33.80;34.50;;;;;;944070;149;27299;-77
2022/09/06 12:54:22;;;;;;;1.22;1.12;;;33.70;34.40;;;;;;944211;148;27375;-80
2022/09/06 12:56:49;;;;;;;1.25;1.00;;;33.80;34.60;;;;;;945032;149;27342;-80
2022/09/06 12:59:18;;;;;;;1.42;1.10;;;33.70;34.40;;;;;;944968;149;27229;-80
2022/09/06 13:02:03;;;;;;;1.42;0.90;;;33.70;34.50;;;;;;944717;149;27427;-80